• Join FlightAware (Why Join?)
  • Login
  • US Flag 
10:18AM EDT


 

Airport Tracker/Info


-or-


 

Live Flight TrackerFlight Track Log ✈ UAL395 ✈ 09-May-2013 ✈ KIAH - KLAS

Flight Track Log - Related Links

Times and Time Zones

All times are in EDT time to prevent confusion due to time zone crossing. See the UAL395 flight status page for this flight to view local times or setup timezone preferences in your user account.

Time Position Orientation Groundspeed Altitude Reporting Facility
EDT Latitude Longitude Course Direction KTS MPH feet Rate Location/Type
08:25AM 29.9639 -95.3433 276° West 156 180 700  Level Houston Center
08:26AM 29.9381 -95.3367 167° South 175 201 1,700 1,740 Climbing Houston Center
08:27AM 29.9256 -95.3769 250° West 229 264 3,300 2,400 Climbing Houston Center
08:28AM 29.9533 -95.4747 288° West 270 311 6,200 2,880 Climbing Houston Center
08:29AM 30.0350 -95.8197 276° West  Level FlightAware Approximate
08:29AM 29.9708 -95.5603 283° West 275 316 9,300  Level Houston Center
08:30AM 30.0452 -95.9421 276° West  Level FlightAware Approximate
08:30AM 29.9894 -95.6536 283° West 294 338 11,100  Level Houston Center
08:31AM 30.0677 -96.0613 276° West  Level FlightAware Approximate
08:31AM 30.0114 -95.7636 283° West 347 399 13,500  Level Houston Center
08:32AM 30.0336 -95.8719 283° West 350 403 16,300 2,460 Climbing Houston Center
08:33AM 30.0550 -95.9839 282° West 358 412 18,700 2,220 Climbing Houston Center
08:34AM 30.0778 -96.1022 283° West 364 419 20,900 1,980 Climbing Houston Center
08:35AM 30.0947 -96.2186 280° West 369 425 22,800 1,800 Climbing Houston Center
08:36AM 30.1169 -96.3614 280° West 379 436 24,700 1,560 Climbing Houston Center
08:37AM 30.1322 -96.4694 279° West 386 444 26,000 1,500 Climbing Houston Center
08:38AM 30.1550 -96.6161 280° West 394 453 27,900 1,380 Climbing Houston Center
08:39AM 30.1783 -96.7422 282° West 397 457 28,900 1,020 Climbing Houston Center
08:40AM 30.2111 -96.8692 287° West 406 467 30,100 1,380 Climbing Houston Center
08:41AM 30.2428 -96.9975 286° West 409 471 31,800 1,560 Climbing Houston Center
08:42AM 30.2733 -97.1208 286° West 397 457 33,300 1,020 Climbing Houston Center
08:43AM 30.3039 -97.2408 286° West 386 444 34,000 300 Climbing Houston Center
08:44AM 30.3336 -97.3611 286° West 384 442 34,000  Level Houston Center
08:45AM 30.3639 -97.4828 286° West 385 443 34,000 180 Level Houston Center
08:46AM 30.3939 -97.6036 286° West 386 444 34,400 780 Climbing Houston Center
08:47AM 30.4239 -97.7250 286° West 386 444 35,700 780 Climbing Houston Center
08:48AM 30.4525 -97.8436 286° West 381 438 36,000 120 Climbing Houston Center
08:49AM 30.4808 -97.9589 286° West 371 427 36,000  Level Houston Center
08:50AM 30.5089 -98.0769 285° West 374 430 36,000  Level Houston Center
08:51AM 30.5428 -98.2156 286° West 378 435 36,000  Level Houston Center
08:52AM 30.5711 -98.3344 285° West 379 436 36,000  Level Houston Center
08:53AM 30.5992 -98.4536 285° West 379 436 36,000  Level Houston Center
08:55AM 30.6278 -98.5717 286° West 377 434 36,100  Climbing Houston Center
08:56AM 30.6553 -98.6889 285° West 373 429 36,000 -60 Descending Houston Center
08:57AM 30.6839 -98.8064 286° West 375 432 36,000  Level Houston Center
08:58AM 30.7106 -98.9247 285° West 376 433 36,000  Level Houston Center
08:59AM 30.7394 -99.0425 286° West 375 432 36,000  Level Houston Center
09:00AM 30.7667 -99.1617 285° West 377 434 36,000 -60 Level Houston Center
09:01AM 30.7942 -99.2778 285° West 374 430 35,900  Descending Houston Center
09:02AM 30.8269 -99.4186 285° West 377 434 36,000  Climbing Houston Center
09:03AM 30.8503 -99.5308 284° West 358 412 36,000 -60 Level Houston Center
09:04AM 30.8792 -99.6472 286° West 370 426 35,900  Descending Houston Center
09:05AM 30.9078 -99.7689 285° West 385 443 36,000  Climbing Houston Center
09:06AM 30.9333 -99.8847 284° West 375 432 36,000 900 Level Houston Center
09:07AM 30.9592 -99.9967 285° West 365 420 37,900 960 Climbing Houston Center
09:08AM 30.9867 -100.1239 284° West 345 397 38,000  Climbing Houston Center
09:09AM 31.0114 -100.2342 285° West 351 404 38,000  Level Houston Center
09:10AM 31.0350 -100.3425 284° West 349 402 38,000  Level Houston Center
09:11AM 31.0639 -100.4517 287° West 352 405 38,000  Level Houston Center
09:12AM 31.0872 -100.5631 284° West 354 407 38,000  Level Houston Center
09:13AM 31.1106 -100.6742 284° West 351 404 38,000 -60 Level Houston Center
09:14AM 31.1361 -100.8081 283° West 356 410 37,900 -120 Descending Houston Center
09:15AM 31.1472 -100.8600 284° West 358 412 37,900  Level Fort Worth Center
09:15AM 31.1600 -100.9197 284° West 360 414 37,900 60 Level Houston Center
09:16AM 31.1839 -101.0300 284° West 359 413 38,000  Climbing Houston Center
09:17AM 31.2064 -101.1458 283° West 367 422 38,000  Level Houston Center
09:18AM 31.2675 -101.2428 306° West 377 434 38,000 -60 Level Houston Center
09:19AM 31.3358 -101.3361 311° West 380 437 37,900 -60 Descending Houston Center
09:20AM 31.4186 -101.4469 311° West 379 436 37,900  Level Houston Center
09:21AM 31.4856 -101.5394 310° West 375 432 38,000  Climbing Houston Center
09:22AM 31.5536 -101.6342 310° West 377 434 37,900 -60 Descending Houston Center
09:23AM 31.6244 -101.7283 311° West 381 438 37,900  Level Houston Center
09:25AM 31.7133 -101.8503 311° West 387 445 38,000  Climbing Fort Worth Center
09:26AM 31.7789 -101.9392 311° West 393 452 38,000 -60 Level Fort Worth Center
09:27AM 31.8486 -102.0353 311° West 393 452 37,900  Descending Fort Worth Center
09:28AM 31.9200 -102.1344 310° West 393 452 38,000  Climbing Fort Worth Center
09:29AM 31.9933 -102.2361 310° West 398 458 38,000  Level Fort Worth Center
09:30AM 32.0628 -102.3331 310° West 398 458 38,000  Level Fort Worth Center
09:31AM 32.1397 -102.4450 309° West 393 452 38,000  Level Fort Worth Center
09:32AM 32.2086 -102.5422 310° West 398 458 38,000  Level Fort Worth Center
09:33AM 32.2797 -102.6419 310° West 398 458 38,000  Level Fort Worth Center
09:34AM 32.3506 -102.7419 310° West 398 458 38,000  Level Fort Worth Center
09:35AM 32.4078 -102.8217 310° West 398 458 38,000  Level Fort Worth Center
09:36AM 32.4886 -102.9322 311° West 398 458 38,000  Level Fort Worth Center
09:37AM 32.5611 -103.0353 310° West 398 458 38,100  Climbing Fort Worth Center
09:39AM 32.7314 -103.2767 310° West 413 475 38,000 -60 Descending Albuquerque Center
09:40AM 32.8056 -103.3825 310° West 414 476 38,000  Level Albuquerque Center
09:41AM 32.8789 -103.4881 310° West 415 478 38,000  Level Albuquerque Center
09:42AM 32.9525 -103.5936 310° West 415 478 38,000  Level Albuquerque Center
09:43AM 33.0328 -103.7061 310° West 417 480 38,000  Level Albuquerque Center
09:44AM 33.1156 -103.8203 311° West 422 486 38,000  Level Albuquerque Center
09:45AM 33.1889 -103.9275 309° West 419 482 38,000  Level Albuquerque Center
09:46AM 33.2617 -104.0344 309° West 417 480 38,000  Level Albuquerque Center
09:47AM 33.3400 -104.1492 309° West 414 476 38,000  Level Albuquerque Center
09:48AM 33.4139 -104.2581 309° West 421 484 38,000  Level Albuquerque Center
09:49AM 33.4872 -104.3669 309° West 423 487 38,000  Level Albuquerque Center
09:50AM 33.5669 -104.4839 309° West 424 488 38,000  Level Albuquerque Center
09:51AM 33.6411 -104.5933 309° West 424 488 38,000  Level Albuquerque Center
09:52AM 33.7150 -104.7036 309° West 425 489 38,000  Level Albuquerque Center
09:53AM 33.7897 -104.8136 309° West 426 490 38,000  Level Albuquerque Center
09:54AM 33.8683 -104.9336 308° West 424 488 38,000  Level Albuquerque Center
09:55AM 33.9444 -105.0422 310° West 426 490 38,000  Level Albuquerque Center
09:56AM 34.0175 -105.1514 309° West 420 483 38,000  Level Albuquerque Center
09:57AM 34.0964 -105.2692 309° West 426 490 38,000  Level Albuquerque Center
09:58AM 34.1703 -105.3803 309° West 425 489 38,000  Level Albuquerque Center
09:59AM 34.2444 -105.4928 309° West 423 487 38,000  Level Albuquerque Center
10:00AM 34.3208 -105.6078 309° West 428 493 38,000  Level Albuquerque Center
10:01AM 34.3764 -105.7336 298° West 422 486 38,000  Level Albuquerque Center
10:02AM 34.4061 -105.8725 285° West 422 486 38,000  Level Albuquerque Center
10:03AM 34.4314 -106.0125 282° West 421 484 38,000  Level Albuquerque Center
10:04AM 34.4586 -106.1519 283° West 421 484 38,100  Climbing Albuquerque Center
10:05AM 34.4822 -106.2797 283° West 421 484 38,000 -60 Descending Albuquerque Center
10:06AM 34.5072 -106.4167 283° West 417 480 38,000  Level Albuquerque Center
10:07AM 34.5394 -106.5794 284° West 414 476 38,000  Level Albuquerque Center
10:08AM 34.5647 -106.7178 283° West 416 479 38,000  Level Albuquerque Center
10:09AM 34.5900 -106.8550 283° West 416 479 38,000  Level Albuquerque Center
10:10AM 34.6144 -106.9967 282° West 422 486 38,000  Level Albuquerque Center
10:12AM 34.6408 -107.1361 283° West 421 484 38,000  Level Albuquerque Center
10:13AM 34.6658 -107.2767 282° West 423 487 38,000  Level Albuquerque Center
10:14AM 34.6928 -107.4242 283° West 420 483 38,000  Level Albuquerque Center
10:15AM 34.7153 -107.5517 282° West 414 476 38,000  Level Albuquerque Center
10:16AM 34.7400 -107.6875 283° West 412 474 38,000  Level Albuquerque Center
10:17AM 34.7636 -107.8233 282° West 410 472 38,000  Level Albuquerque Center
10:18AM 34.7922 -107.9869 282° West 412 474 38,000  Level Albuquerque Center
10:19AM 34.8164 -108.1239 282° West 414 476 38,000  Level Albuquerque Center
10:20AM 34.8400 -108.2625 282° West 416 479 38,000  Level Albuquerque Center
10:21AM 34.8650 -108.4064 282° West 417 480 38,000  Level Albuquerque Center
10:22AM 34.8883 -108.5400 282° West 420 483 38,000  Level Albuquerque Center
10:23AM 34.9144 -108.6969 282° West 422 486 38,000  Level Albuquerque Center
10:24AM 34.9383 -108.8342 282° West 427 491 38,000  Level Albuquerque Center
10:25AM 34.9644 -108.9911 282° West 424 488 38,000  Level Albuquerque Center
10:26AM 34.9867 -109.1261 281° West 424 488 38,000  Level Albuquerque Center
10:27AM 35.0119 -109.2828 281° West 420 483 38,000  Level Albuquerque Center
10:28AM 35.0336 -109.4175 281° West 420 483 38,000  Level Albuquerque Center
10:29AM 35.0553 -109.5483 281° West 415 478 38,000  Level Albuquerque Center
10:30AM 35.0794 -109.7056 281° West 417 480 38,000  Level Albuquerque Center
10:31AM 35.1019 -109.8436 281° West 426 490 38,000  Level Albuquerque Center
10:32AM 35.1278 -110.0008 281° West 425 489 38,000  Level Albuquerque Center
10:33AM 35.1469 -110.1314 280° West 415 478 38,000  Level Albuquerque Center
10:34AM 35.1686 -110.2844 280° West 411 473 38,000  Level Albuquerque Center
10:35AM 35.1878 -110.4161 280° West 410 472 38,000  Level Albuquerque Center
10:36AM 35.2075 -110.5492 280° West 413 475 38,000  Level Albuquerque Center
10:37AM 35.2317 -110.7033 281° West 414 476 38,000  Level Albuquerque Center
10:38AM 35.2511 -110.8372 280° West 416 479 38,000  Level Albuquerque Center
10:39AM 35.2736 -110.9933 280° West 417 480 38,000  Level Albuquerque Center
10:40AM 35.2953 -111.1311 281° West 432 497 38,000  Level Albuquerque Center
10:41AM 35.3197 -111.2867 281° West 417 480 38,000  Level Albuquerque Center
10:42AM 35.3372 -111.4200 279° West 415 478 38,000  Level Albuquerque Center
10:43AM 35.3581 -111.5647 280° West 431 496 38,000 -1,020 Level Albuquerque Center
10:44AM 35.3781 -111.7053 280° West 426 490 36,000 -2,460 Descending Albuquerque Center
10:46AM 35.4019 -111.8733 280° West 421 484 33,000 -2,880 Descending Albuquerque Center
10:47AM 35.4206 -112.0144 279° West 422 486 30,100 -1,500 Descending Albuquerque Center
10:48AM 35.4408 -112.1564 280° West 425 489 30,000 -60 Descending Albuquerque Center
10:49AM 35.4603 -112.2931 280° West 415 478 30,000  Level Albuquerque Center
10:50AM 35.4786 -112.4297 279° West 411 473 30,000  Level Albuquerque Center
10:50AM 35.4939 -112.5414 280° West 417 480 30,000  Level Los Angeles Center
10:52AM 35.5144 -112.7003 279° West 418 481 30,000  Level Los Angeles Center
10:53AM 35.5336 -112.8394 280° West 416 479 30,000  Level Los Angeles Center
10:54AM 35.5519 -112.9789 279° West 413 475 30,000 -420 Level Los Angeles Center
10:55AM 35.5744 -113.1447 280° West 410 472 29,200 -1,380 Descending Los Angeles Center
10:56AM 35.5942 -113.2808 280° West 411 473 27,200 -2,100 Descending Los Angeles Center
10:57AM 35.6094 -113.4242 278° West 418 481 25,000 -2,100 Descending Los Angeles Center
10:58AM 35.6267 -113.5606 279° West 413 475 22,900 -1,680 Descending Los Angeles Center
10:59AM 35.6414 -113.6672 280° West 405 466 21,500 -1,920 Descending Los Angeles Center
11:00AM 35.6675 -113.8450 280° West 384 442 18,900 -2,100 Descending Los Angeles Center
11:01AM 35.6850 -113.9678 280° West 372 428 17,200 -1,620 Descending Los Angeles Center
11:02AM 35.7014 -114.0867 280° West 359 413 15,600 -1,620 Descending Los Angeles Center
11:03AM 35.7181 -114.2067 280° West 342 394 13,900 -1,620 Descending Los Angeles Center
11:04AM 35.7356 -114.3147 281° West 331 381 12,400 -1,020 Descending Los Angeles Center
11:05AM 35.7739 -114.3972 300° West 299 344 11,900 -900 Descending Los Angeles Center
11:06AM 35.8494 -114.4542 329° Northwest 301 346 10,600 -1,140 Descending Los Angeles Center
11:07AM 35.9083 -114.5244 316° Northwest 295 339 9,600 -1,020 Descending Los Angeles Center
11:08AM 35.9647 -114.5933 315° West 288 331 8,600 -780 Descending Los Angeles Center
11:09AM 36.0186 -114.6603 315° West 279 321 8,100 -300 Descending Los Angeles Center
11:10AM 36.0689 -114.7208 316° Northwest 237 273 8,000 -420 Descending Los Angeles Center
11:11AM 36.0742 -114.8042 275° West 241 277 7,300 -1,080 Descending Los Angeles Center
11:12AM 36.0744 -114.8839 270° West 237 273 5,900 -1,320 Descending Los Angeles Center
11:13AM 36.0747 -114.9636 270° West 229 264 4,700 -1,200 Descending Los Angeles Center
11:14AM 36.0736 -115.0281 269° West 178 205 3,600 -960 Descending Los Angeles Center
11:14AM 36.0742 -115.0422 273° West 203 234 3,500 -420 Descending Los Angeles Center